createdAt,value
2017-03-06T06:21:02.958Z,75.31
2017-03-06T06:21:44.381Z,75.12
2017-03-06T06:22:25.504Z,74.93
2017-03-06T06:27:49.559Z,75.65
2017-03-06T06:28:30.191Z,75.65
2017-03-06T06:29:10.926Z,75.21
2017-03-06T06:29:51.703Z,75.4
2017-03-06T06:30:32.512Z,75.21
2017-03-06T06:31:13.339Z,75.21
2017-03-06T06:31:54.447Z,74.89
2017-03-06T06:32:35.662Z,75.18
2017-03-06T06:33:16.391Z,75.12
2017-03-06T06:33:57.140Z,75.02
2017-03-06T06:34:38.444Z,74.93
2017-03-06T06:35:20.262Z,75.37
2017-03-06T06:36:02.279Z,75.08
2017-03-06T06:36:44.330Z,75.02
2017-03-06T06:37:26.540Z,75.21
2017-03-06T06:38:07.942Z,75.31
2017-03-06T06:38:49.439Z,75.21
2017-03-06T06:39:30.168Z,75.37
2017-03-06T06:40:11.317Z,75.37
2017-03-06T06:40:52.343Z,75.5
2017-03-06T06:41:33.211Z,75.46
2017-03-06T06:42:14.063Z,75.4
2017-03-06T06:42:55.058Z,75.4
2017-03-06T06:43:36.018Z,74.98
2017-03-06T06:44:16.965Z,75.12
2017-03-06T06:44:57.734Z,75.21
2017-03-06T06:45:38.536Z,75.65
2017-03-06T06:46:19.264Z,75.98
2017-03-06T06:47:00.008Z,75.75
2017-03-06T06:47:40.789Z,75.27
2017-03-06T06:48:21.512Z,75.21
2017-03-06T06:49:02.249Z,75.5
2017-03-06T06:49:43.052Z,75.56
2017-03-06T06:50:23.813Z,75.21
2017-03-06T06:51:04.585Z,75.21
2017-03-06T06:51:45.360Z,75.95
2017-03-06T06:52:26.142Z,75.12
2017-03-06T06:53:06.923Z,75.21
2017-03-06T06:53:47.693Z,75.4
2017-03-06T06:54:28.526Z,75.31
2017-03-06T06:55:09.336Z,75.31
2017-03-06T06:55:50.052Z,75.12
2017-03-06T06:56:37.507Z,75.21
2017-03-06T15:36:16.356Z,72.77
2017-03-06T15:36:57.117Z,72.58
2017-03-06T15:37:37.873Z,72.67
2017-03-06T15:38:18.709Z,72.29
2017-03-06T15:38:59.478Z,72.09
2017-03-06T15:39:40.225Z,72.19
2017-03-06T15:40:20.941Z,72
2017-03-06T15:41:01.586Z,71.61
2017-03-06T15:41:42.388Z,72.09
2017-03-06T15:42:23.217Z,72.09
2017-03-06T15:43:04.042Z,72
2017-03-06T15:43:44.720Z,71.91
2017-03-06T15:44:25.559Z,71.91
2017-03-06T15:45:06.306Z,72
2017-03-06T15:45:47.058Z,71.81
2017-03-06T15:46:27.758Z,71.81
2017-03-06T15:47:08.553Z,71.81
2017-03-06T15:47:49.344Z,71.52
2017-03-06T15:48:30.054Z,71.71
2017-03-06T15:49:10.821Z,72.09
2017-03-06T15:49:51.642Z,71.71
2017-03-06T15:50:32.460Z,71.91
2017-03-06T15:51:13.250Z,72.19
2017-03-06T15:51:54.047Z,72
2017-03-06T15:52:34.816Z,72
2017-03-06T15:53:15.507Z,71.91
2017-03-06T15:53:56.251Z,72.09
2017-03-06T15:54:36.961Z,72
2017-03-06T15:55:17.677Z,72.09
2017-03-06T15:55:58.431Z,72.48
2017-03-06T15:56:39.228Z,72.29
2017-03-06T15:57:20.047Z,72.09
2017-03-06T15:58:00.850Z,71.81
2017-03-06T15:58:41.571Z,72.77
2017-03-06T15:59:22.342Z,72.77
2017-03-06T16:00:03.049Z,72.77
2017-03-06T16:00:43.855Z,72.48
2017-03-06T16:01:24.616Z,72.58
2017-03-06T16:02:05.360Z,72.58
2017-03-06T16:02:46.037Z,72.67
2017-03-06T16:03:26.774Z,72.58
2017-03-06T16:05:40.424Z,72.58
2017-03-06T16:06:22.336Z,72.48
2017-03-06T16:07:03.091Z,72.48
2017-03-06T16:07:43.897Z,72.67
2017-03-06T16:08:24.648Z,72.67
2017-03-06T16:09:05.419Z,72.48
2017-03-06T16:09:46.179Z,72.48
2017-03-06T16:10:26.995Z,72.48
2017-03-06T16:11:07.726Z,72.19
2017-03-06T16:11:48.496Z,72.67
2017-03-06T16:12:29.242Z,72.58
2017-03-06T16:13:10.065Z,72.38
2017-03-06T16:13:50.882Z,72.29
2017-03-06T16:14:31.651Z,72.29
2017-03-06T16:15:12.435Z,72.29
2017-03-06T16:15:53.200Z,72.38
2017-03-06T16:16:33.990Z,72.48
2017-03-06T16:17:14.762Z,72.38
2017-03-06T16:17:55.470Z,72.58
2017-03-06T16:18:36.233Z,72.48
2017-03-06T16:19:16.979Z,72.38
2017-03-06T16:19:57.795Z,73.06
2017-03-06T16:20:38.467Z,72.77
2017-03-06T16:21:19.193Z,72.77
2017-03-06T16:21:59.945Z,72.38
2017-03-06T16:22:40.689Z,72.77
2017-03-06T16:23:21.455Z,72.77
2017-03-06T16:24:02.307Z,72.38
2017-03-06T16:24:42.985Z,72.86
2017-03-06T16:25:23.720Z,72.77
2017-03-06T16:26:04.442Z,72.67
2017-03-06T16:26:45.237Z,72.96
2017-03-06T16:27:25.943Z,72.29
2017-03-06T16:28:06.702Z,72.96
2017-03-06T16:28:47.490Z,72.29
2017-03-06T16:29:28.329Z,72.86
2017-03-06T16:30:09.111Z,72.19
2017-03-06T16:30:49.816Z,72.58
2017-03-06T16:31:30.534Z,72.96
2017-03-06T16:32:11.313Z,72.67
2017-03-06T16:32:52.026Z,72.86
2017-03-06T16:33:32.887Z,72.38
2017-03-06T16:34:13.601Z,73.15
2017-03-06T16:34:54.270Z,72.38
2017-03-06T16:35:34.980Z,72.29
2017-03-06T16:36:15.733Z,72.67
2017-03-06T16:36:56.461Z,72.58
2017-03-06T16:37:37.309Z,72.58
2017-03-06T16:38:18.089Z,72.58
2017-03-06T16:38:58.909Z,72.58
2017-03-06T16:39:39.578Z,72.38
2017-03-06T16:40:20.331Z,72.58
2017-03-06T16:41:01.081Z,72.58
2017-03-06T16:41:41.839Z,72.67
2017-03-06T16:42:22.679Z,72.96
2017-03-06T16:43:03.527Z,72.67
2017-03-06T16:43:44.289Z,72.67
2017-03-06T16:44:25.070Z,72.58
2017-03-06T16:45:05.783Z,72.29
2017-03-06T16:45:46.619Z,72.67
2017-03-06T16:46:27.424Z,72.38
2017-03-06T16:47:08.129Z,72.77
2017-03-06T16:47:48.915Z,72.77
2017-03-06T16:48:29.622Z,72.77
2017-03-06T16:49:10.333Z,72.48
2017-03-06T16:49:51.042Z,72.29
2017-03-06T16:50:31.866Z,72.19
2017-03-06T16:51:12.541Z,72
2017-03-06T16:51:53.249Z,72.38
2017-03-06T16:52:34.011Z,72.29
2017-03-06T16:53:14.798Z,72.86
2017-03-06T16:53:55.546Z,72.19
2017-03-06T16:54:36.292Z,72.34
2017-03-06T16:55:17.039Z,72.38
2017-03-06T16:55:57.843Z,72.19
2017-03-06T16:56:38.602Z,72.29
2017-03-06T16:57:19.367Z,72.54
2017-03-06T16:58:00.158Z,72.77
2017-03-06T16:58:40.931Z,72.73
2017-03-06T16:59:21.627Z,72.96
2017-03-06T17:00:02.356Z,72.58
2017-03-06T17:00:43.148Z,72.29
2017-03-06T17:01:23.901Z,72.19
2017-03-06T17:02:04.679Z,72.38
2017-03-06T17:02:45.437Z,72.96
2017-03-06T17:03:26.194Z,72.48
2017-03-06T17:04:06.882Z,72.29
2017-03-06T17:14:05.991Z,72.73
2017-03-06T18:59:05.825Z,73.41
2017-03-06T18:59:46.568Z,73.5
2017-03-06T19:00:27.330Z,73.6
2017-03-06T19:01:08.101Z,74.08
2017-03-06T19:01:48.869Z,73.98
2017-03-06T19:02:29.602Z,73.98
2017-03-06T19:03:10.444Z,73.98
2017-03-06T19:03:51.195Z,73.79
2017-03-06T19:04:31.892Z,73.98
2017-03-06T19:05:12.611Z,73.79
2017-03-06T19:05:53.444Z,74.27
2017-03-06T19:06:34.225Z,74.08
2017-03-06T19:07:14.960Z,73.79
2017-03-06T19:07:55.739Z,73.98
2017-03-06T19:08:36.478Z,74.08
2017-03-06T19:09:17.244Z,73.98
2017-03-06T19:09:58.108Z,74.17
2017-03-06T19:10:38.916Z,73.98
2017-03-06T19:11:19.732Z,73.79
2017-03-06T19:12:00.431Z,73.98
2017-03-06T19:12:41.143Z,73.98
2017-03-06T19:13:21.956Z,73.98
2017-03-06T19:14:02.661Z,73.98
2017-03-06T19:14:43.478Z,73.79
2017-03-06T19:15:24.190Z,74.08
2017-03-06T19:16:05.041Z,74.17
2017-03-06T19:16:45.785Z,74.17
2017-03-06T19:17:26.600Z,73.98
2017-03-06T19:18:07.358Z,74.08
2017-03-06T19:18:48.091Z,73.94
2017-03-06T19:19:28.889Z,74.46
2017-03-06T19:20:09.656Z,74.65
2017-03-06T19:20:50.423Z,74.65
2017-03-06T19:21:31.158Z,74.46
2017-03-06T19:22:11.914Z,74.37
2017-03-06T19:22:52.708Z,74.46
2017-03-06T19:23:33.481Z,74.65
2017-03-06T19:24:14.220Z,74.65
2017-03-06T19:24:54.993Z,74.65
2017-03-06T19:25:35.775Z,74.65
2017-03-06T19:26:16.501Z,74.55
2017-03-06T19:30:06.685Z,75.04
2017-03-06T19:30:47.435Z,75.42
2017-03-06T19:31:28.188Z,75.32
2017-03-06T19:32:08.976Z,75.52
2017-03-06T19:32:49.771Z,75.32
2017-03-06T19:33:30.466Z,75.42
2017-03-06T19:34:11.276Z,75.04
2017-03-06T19:34:52.065Z,75.1
2017-03-06T19:35:32.936Z,75.32
2017-03-06T19:36:13.727Z,75.32
2017-03-06T19:36:54.467Z,75.38
2017-03-06T19:37:35.304Z,75.2
2017-03-06T19:38:16.051Z,75.52
2017-03-06T19:38:56.850Z,75.04
2017-03-06T19:39:37.604Z,75.04
2017-03-06T19:40:18.367Z,74.9
2017-03-06T19:40:59.106Z,74.52
2017-03-06T19:41:39.904Z,75.23
2017-03-06T19:42:20.665Z,75
2017-03-06T19:43:01.448Z,74.85
2017-03-06T19:43:42.139Z,75
2017-03-06T19:44:22.903Z,74.81
2017-03-06T19:45:03.650Z,75.29
2017-03-06T19:45:45.681Z,75
2017-03-06T19:46:25.557Z,74.94
2017-03-06T19:47:06.338Z,75.38
2017-03-06T19:47:47.146Z,75
2017-03-06T19:48:27.969Z,74.75
2017-03-06T19:49:08.724Z,75.38
2017-03-06T19:49:49.470Z,75.48
2017-03-06T19:50:30.270Z,74.62
2017-03-06T19:51:11.041Z,74.75
2017-03-06T19:51:51.775Z,74.81
2017-03-06T19:52:32.591Z,74.81
2017-03-06T19:53:13.413Z,74.65
2017-03-06T19:53:54.169Z,74.71
2017-03-06T20:17:11.701Z,75.32
2017-03-06T21:33:22.976Z,77.53
2017-03-06T21:34:03.787Z,77.53
2017-03-06T21:34:44.495Z,77.15
2017-03-06T21:35:25.196Z,77.63
2017-03-06T21:36:06.007Z,76.67
2017-03-06T21:36:46.757Z,76.86
2017-03-06T21:37:27.560Z,77.15
2017-03-06T21:38:08.313Z,76.67
2017-03-06T21:38:49.076Z,77.15
2017-03-06T21:39:29.817Z,77.34
2017-03-06T21:40:10.629Z,77.15
2017-03-06T21:40:51.394Z,77.15
2017-03-06T21:41:32.206Z,77.34
2017-03-06T21:42:12.951Z,77.53
2017-03-06T21:42:54.068Z,77.63
2017-03-06T23:27:34.294Z,77.53
2017-03-06T23:28:17.034Z,77.73
